sensor_id;sensor_type;location;lat;lon;timestamp;P1;durP1;ratioP1;P2;durP2;ratioP2
75971;SDS011;64651;47.540;19.088;2023-04-15T00:01:22;14.40;;;5.82;;
75971;SDS011;64651;47.540;19.088;2023-04-15T00:06:24;14.60;;;6.32;;
75971;SDS011;64651;47.540;19.088;2023-04-15T00:11:27;13.45;;;5.40;;
75971;SDS011;64651;47.540;19.088;2023-04-15T00:16:29;13.77;;;5.90;;
75971;SDS011;64651;47.540;19.088;2023-04-15T00:21:47;14.68;;;6.28;;
75971;SDS011;64651;47.540;19.088;2023-04-15T00:26:49;14.35;;;6.25;;
75971;SDS011;64651;47.540;19.088;2023-04-15T00:31:52;17.30;;;7.53;;
75971;SDS011;64651;47.540;19.088;2023-04-15T00:36:54;17.77;;;7.47;;
75971;SDS011;64651;47.540;19.088;2023-04-15T00:41:56;17.33;;;7.50;;
75971;SDS011;64651;47.540;19.088;2023-04-15T00:46:59;17.40;;;7.78;;
75971;SDS011;64651;47.540;19.088;2023-04-15T00:52:02;18.37;;;7.87;;
75971;SDS011;64651;47.540;19.088;2023-04-15T00:57:05;18.70;;;8.25;;
75971;SDS011;64651;47.540;19.088;2023-04-15T01:02:07;17.23;;;7.37;;
75971;SDS011;64651;47.540;19.088;2023-04-15T01:07:10;17.33;;;8.17;;
75971;SDS011;64651;47.540;19.088;2023-04-15T01:12:13;17.30;;;7.82;;
75971;SDS011;64651;47.540;19.088;2023-04-15T01:17:19;17.52;;;8.30;;
75971;SDS011;64651;47.540;19.088;2023-04-15T01:22:21;18.85;;;8.20;;
75971;SDS011;64651;47.540;19.088;2023-04-15T01:27:25;17.15;;;7.53;;
75971;SDS011;64651;47.540;19.088;2023-04-15T01:32:27;17.13;;;8.10;;
75971;SDS011;64651;47.540;19.088;2023-04-15T01:37:30;17.62;;;8.23;;
75971;SDS011;64651;47.540;19.088;2023-04-15T01:42:34;17.75;;;8.32;;
75971;SDS011;64651;47.540;19.088;2023-04-15T01:47:37;16.45;;;8.45;;
75971;SDS011;64651;47.540;19.088;2023-04-15T01:52:40;18.75;;;9.05;;
75971;SDS011;64651;47.540;19.088;2023-04-15T01:57:44;16.43;;;8.33;;
75971;SDS011;64651;47.540;19.088;2023-04-15T02:02:47;17.92;;;8.65;;
75971;SDS011;64651;47.540;19.088;2023-04-15T02:07:50;17.60;;;8.63;;
75971;SDS011;64651;47.540;19.088;2023-04-15T02:12:52;19.15;;;8.88;;
75971;SDS011;64651;47.540;19.088;2023-04-15T02:17:57;18.08;;;7.93;;
75971;SDS011;64651;47.540;19.088;2023-04-15T02:23:01;18.07;;;8.37;;
75971;SDS011;64651;47.540;19.088;2023-04-15T02:28:04;17.10;;;8.23;;
75971;SDS011;64651;47.540;19.088;2023-04-15T02:33:07;18.33;;;8.38;;
75971;SDS011;64651;47.540;19.088;2023-04-15T02:38:09;17.17;;;7.82;;
75971;SDS011;64651;47.540;19.088;2023-04-15T02:43:12;18.25;;;8.35;;
75971;SDS011;64651;47.540;19.088;2023-04-15T02:48:14;17.80;;;7.50;;
75971;SDS011;64651;47.540;19.088;2023-04-15T02:53:18;18.37;;;8.40;;
75971;SDS011;64651;47.540;19.088;2023-04-15T02:58:21;16.00;;;7.60;;
75971;SDS011;64651;47.540;19.088;2023-04-15T03:03:23;18.02;;;8.27;;
75971;SDS011;64651;47.540;19.088;2023-04-15T03:08:26;17.23;;;7.57;;
75971;SDS011;64651;47.540;19.088;2023-04-15T03:13:28;18.57;;;8.30;;
75971;SDS011;64651;47.540;19.088;2023-04-15T03:18:30;17.87;;;7.75;;
75971;SDS011;64651;47.540;19.088;2023-04-15T03:23:32;16.40;;;7.75;;
75971;SDS011;64651;47.540;19.088;2023-04-15T03:28:34;16.12;;;7.65;;
75971;SDS011;64651;47.540;19.088;2023-04-15T03:33:37;16.05;;;7.50;;
75971;SDS011;64651;47.540;19.088;2023-04-15T03:38:39;17.70;;;8.10;;
75971;SDS011;64651;47.540;19.088;2023-04-15T03:43:41;16.87;;;8.10;;
75971;SDS011;64651;47.540;19.088;2023-04-15T03:48:44;16.85;;;8.15;;
75971;SDS011;64651;47.540;19.088;2023-04-15T03:53:46;22.02;;;8.35;;
75971;SDS011;64651;47.540;19.088;2023-04-15T03:58:48;17.00;;;7.70;;
75971;SDS011;64651;47.540;19.088;2023-04-15T04:03:50;16.10;;;7.67;;
75971;SDS011;64651;47.540;19.088;2023-04-15T04:08:53;18.27;;;8.85;;
75971;SDS011;64651;47.540;19.088;2023-04-15T04:13:55;16.40;;;8.30;;
75971;SDS011;64651;47.540;19.088;2023-04-15T04:18:57;18.42;;;8.55;;
75971;SDS011;64651;47.540;19.088;2023-04-15T04:24:00;17.77;;;9.02;;
75971;SDS011;64651;47.540;19.088;2023-04-15T04:29:02;18.97;;;8.57;;
75971;SDS011;64651;47.540;19.088;2023-04-15T04:34:04;26.65;;;12.35;;
75971;SDS011;64651;47.540;19.088;2023-04-15T04:39:07;36.20;;;15.40;;
75971;SDS011;64651;47.540;19.088;2023-04-15T04:44:09;23.15;;;10.27;;
75971;SDS011;64651;47.540;19.088;2023-04-15T04:49:11;22.00;;;8.90;;
75971;SDS011;64651;47.540;19.088;2023-04-15T04:54:14;18.47;;;8.40;;
75971;SDS011;64651;47.540;19.088;2023-04-15T04:59:16;17.62;;;8.43;;
75971;SDS011;64651;47.540;19.088;2023-04-15T05:04:20;17.27;;;7.68;;
75971;SDS011;64651;47.540;19.088;2023-04-15T05:09:22;15.88;;;7.60;;
75971;SDS011;64651;47.540;19.088;2023-04-15T05:14:27;15.38;;;7.57;;
75971;SDS011;64651;47.540;19.088;2023-04-15T05:19:29;16.47;;;7.23;;
75971;SDS011;64651;47.540;19.088;2023-04-15T05:24:31;16.42;;;7.72;;
75971;SDS011;64651;47.540;19.088;2023-04-15T05:29:33;15.73;;;7.35;;
75971;SDS011;64651;47.540;19.088;2023-04-15T05:34:37;14.23;;;6.87;;
75971;SDS011;64651;47.540;19.088;2023-04-15T05:39:39;15.88;;;7.40;;
75971;SDS011;64651;47.540;19.088;2023-04-15T05:44:41;13.30;;;6.40;;
75971;SDS011;64651;47.540;19.088;2023-04-15T05:49:43;11.57;;;5.43;;
75971;SDS011;64651;47.540;19.088;2023-04-15T05:54:46;12.10;;;5.50;;
75971;SDS011;64651;47.540;19.088;2023-04-15T05:59:48;11.65;;;5.70;;
75971;SDS011;64651;47.540;19.088;2023-04-15T06:04:53;12.18;;;5.78;;
75971;SDS011;64651;47.540;19.088;2023-04-15T06:09:55;12.80;;;6.00;;
75971;SDS011;64651;47.540;19.088;2023-04-15T06:14:57;12.30;;;5.95;;
75971;SDS011;64651;47.540;19.088;2023-04-15T06:20:01;12.63;;;6.00;;
75971;SDS011;64651;47.540;19.088;2023-04-15T06:25:04;11.68;;;5.50;;
75971;SDS011;64651;47.540;19.088;2023-04-15T06:30:09;12.25;;;6.03;;
75971;SDS011;64651;47.540;19.088;2023-04-15T06:35:11;10.23;;;4.60;;
75971;SDS011;64651;47.540;19.088;2023-04-15T06:40:13;10.80;;;4.93;;
75971;SDS011;64651;47.540;19.088;2023-04-15T06:45:16;10.70;;;5.10;;
75971;SDS011;64651;47.540;19.088;2023-04-15T06:50:19;11.63;;;4.85;;
75971;SDS011;64651;47.540;19.088;2023-04-15T06:55:21;11.38;;;4.72;;
75971;SDS011;64651;47.540;19.088;2023-04-15T07:00:23;10.30;;;4.57;;
75971;SDS011;64651;47.540;19.088;2023-04-15T07:05:26;9.82;;;4.57;;
75971;SDS011;64651;47.540;19.088;2023-04-15T07:10:28;9.75;;;4.60;;
75971;SDS011;64651;47.540;19.088;2023-04-15T07:15:31;10.40;;;4.75;;
75971;SDS011;64651;47.540;19.088;2023-04-15T07:20:34;10.27;;;4.57;;
75971;SDS011;64651;47.540;19.088;2023-04-15T07:25:36;9.00;;;4.40;;
75971;SDS011;64651;47.540;19.088;2023-04-15T07:30:39;8.45;;;3.85;;
75971;SDS011;64651;47.540;19.088;2023-04-15T07:35:42;8.10;;;4.18;;
75971;SDS011;64651;47.540;19.088;2023-04-15T07:40:45;8.93;;;3.90;;
75971;SDS011;64651;47.540;19.088;2023-04-15T07:45:47;9.25;;;4.12;;
75971;SDS011;64651;47.540;19.088;2023-04-15T07:50:49;7.83;;;3.40;;
75971;SDS011;64651;47.540;19.088;2023-04-15T07:55:52;7.90;;;3.65;;
75971;SDS011;64651;47.540;19.088;2023-04-15T08:00:54;9.07;;;3.60;;
75971;SDS011;64651;47.540;19.088;2023-04-15T08:05:57;8.10;;;3.77;;
75971;SDS011;64651;47.540;19.088;2023-04-15T08:11:01;7.47;;;3.28;;
75971;SDS011;64651;47.540;19.088;2023-04-15T08:16:15;7.53;;;3.13;;
75971;SDS011;64651;47.540;19.088;2023-04-15T08:21:19;6.70;;;3.00;;
75971;SDS011;64651;47.540;19.088;2023-04-15T08:26:21;6.90;;;2.80;;
75971;SDS011;64651;47.540;19.088;2023-04-15T08:31:25;6.40;;;2.90;;
75971;SDS011;64651;47.540;19.088;2023-04-15T08:36:30;6.37;;;2.40;;
75971;SDS011;64651;47.540;19.088;2023-04-15T08:41:35;6.17;;;2.33;;
75971;SDS011;64651;47.540;19.088;2023-04-15T08:46:42;6.00;;;2.00;;
75971;SDS011;64651;47.540;19.088;2023-04-15T08:51:45;5.45;;;2.00;;
75971;SDS011;64651;47.540;19.088;2023-04-15T08:56:48;5.95;;;2.03;;
75971;SDS011;64651;47.540;19.088;2023-04-15T09:01:51;5.40;;;2.00;;
75971;SDS011;64651;47.540;19.088;2023-04-15T09:06:55;5.70;;;2.10;;
75971;SDS011;64651;47.540;19.088;2023-04-15T09:11:59;5.28;;;1.87;;
75971;SDS011;64651;47.540;19.088;2023-04-15T09:17:02;5.70;;;1.98;;
75971;SDS011;64651;47.540;19.088;2023-04-15T09:22:05;5.60;;;2.10;;
75971;SDS011;64651;47.540;19.088;2023-04-15T09:27:07;5.12;;;1.60;;
75971;SDS011;64651;47.540;19.088;2023-04-15T09:32:13;6.23;;;1.77;;
75971;SDS011;64651;47.540;19.088;2023-04-15T09:37:16;4.32;;;1.50;;
75971;SDS011;64651;47.540;19.088;2023-04-15T09:42:33;5.82;;;1.80;;
75971;SDS011;64651;47.540;19.088;2023-04-15T09:47:35;4.70;;;1.30;;
75971;SDS011;64651;47.540;19.088;2023-04-15T09:52:41;4.32;;;1.30;;
75971;SDS011;64651;47.540;19.088;2023-04-15T09:57:44;3.97;;;1.30;;
75971;SDS011;64651;47.540;19.088;2023-04-15T10:02:50;6.03;;;1.75;;
75971;SDS011;64651;47.540;19.088;2023-04-15T10:07:53;6.82;;;2.70;;
75971;SDS011;64651;47.540;19.088;2023-04-15T10:12:55;8.10;;;3.53;;
75971;SDS011;64651;47.540;19.088;2023-04-15T10:17:58;8.63;;;3.60;;
75971;SDS011;64651;47.540;19.088;2023-04-15T10:23:02;7.77;;;2.70;;
75971;SDS011;64651;47.540;19.088;2023-04-15T10:28:05;5.60;;;2.12;;
75971;SDS011;64651;47.540;19.088;2023-04-15T10:33:09;5.97;;;2.50;;
75971;SDS011;64651;47.540;19.088;2023-04-15T10:43:53;6.12;;;1.87;;
75971;SDS011;64651;47.540;19.088;2023-04-15T10:49:25;5.13;;;1.40;;
75971;SDS011;64651;47.540;19.088;2023-04-15T10:59:30;4.72;;;1.10;;
75971;SDS011;64651;47.540;19.088;2023-04-15T11:09:54;4.70;;;1.35;;
75971;SDS011;64651;47.540;19.088;2023-04-15T11:14:57;4.40;;;1.23;;
75971;SDS011;64651;47.540;19.088;2023-04-15T11:19:59;4.22;;;1.30;;
75971;SDS011;64651;47.540;19.088;2023-04-15T11:25:02;4.95;;;1.40;;
75971;SDS011;64651;47.540;19.088;2023-04-15T11:30:21;3.87;;;0.90;;
75971;SDS011;64651;47.540;19.088;2023-04-15T11:35:28;4.40;;;0.90;;
75971;SDS011;64651;47.540;19.088;2023-04-15T11:40:31;4.13;;;1.10;;
75971;SDS011;64651;47.540;19.088;2023-04-15T11:45:38;3.72;;;1.00;;
75971;SDS011;64651;47.540;19.088;2023-04-15T11:51:07;5.32;;;1.80;;
75971;SDS011;64651;47.540;19.088;2023-04-15T11:56:20;4.27;;;1.20;;
75971;SDS011;64651;47.540;19.088;2023-04-15T12:06:40;3.03;;;1.10;;
75971;SDS011;64651;47.540;19.088;2023-04-15T12:16:45;3.28;;;1.00;;
75971;SDS011;64651;47.540;19.088;2023-04-15T12:21:57;4.67;;;1.07;;
75971;SDS011;64651;47.540;19.088;2023-04-15T12:27:06;4.40;;;1.35;;
75971;SDS011;64651;47.540;19.088;2023-04-15T12:32:10;4.13;;;1.20;;
75971;SDS011;64651;47.540;19.088;2023-04-15T12:37:19;4.47;;;1.30;;
75971;SDS011;64651;47.540;19.088;2023-04-15T12:42:21;3.55;;;1.10;;
75971;SDS011;64651;47.540;19.088;2023-04-15T12:47:23;3.58;;;1.00;;
75971;SDS011;64651;47.540;19.088;2023-04-15T12:52:26;3.95;;;1.00;;
75971;SDS011;64651;47.540;19.088;2023-04-15T12:57:28;5.93;;;1.30;;
75971;SDS011;64651;47.540;19.088;2023-04-15T13:02:30;4.55;;;1.48;;
75971;SDS011;64651;47.540;19.088;2023-04-15T13:07:33;3.87;;;1.10;;
75971;SDS011;64651;47.540;19.088;2023-04-15T13:12:35;5.57;;;1.52;;
75971;SDS011;64651;47.540;19.088;2023-04-15T13:17:38;6.85;;;1.87;;
75971;SDS011;64651;47.540;19.088;2023-04-15T13:22:40;5.90;;;2.10;;
75971;SDS011;64651;47.540;19.088;2023-04-15T13:27:43;6.62;;;2.05;;
75971;SDS011;64651;47.540;19.088;2023-04-15T13:32:45;4.90;;;1.40;;
75971;SDS011;64651;47.540;19.088;2023-04-15T13:37:52;4.55;;;1.40;;
75971;SDS011;64651;47.540;19.088;2023-04-15T13:42:55;4.65;;;1.40;;
75971;SDS011;64651;47.540;19.088;2023-04-15T13:47:58;4.03;;;1.10;;
75971;SDS011;64651;47.540;19.088;2023-04-15T13:53:00;5.22;;;1.50;;
75971;SDS011;64651;47.540;19.088;2023-04-15T13:58:03;5.30;;;1.70;;
75971;SDS011;64651;47.540;19.088;2023-04-15T14:03:05;5.55;;;1.60;;
75971;SDS011;64651;47.540;19.088;2023-04-15T14:08:07;5.78;;;1.70;;
75971;SDS011;64651;47.540;19.088;2023-04-15T14:13:10;7.00;;;2.70;;
75971;SDS011;64651;47.540;19.088;2023-04-15T14:18:12;8.07;;;3.00;;
75971;SDS011;64651;47.540;19.088;2023-04-15T14:23:14;8.00;;;3.28;;
75971;SDS011;64651;47.540;19.088;2023-04-15T14:28:17;8.00;;;3.33;;
75971;SDS011;64651;47.540;19.088;2023-04-15T14:33:20;7.62;;;3.00;;
75971;SDS011;64651;47.540;19.088;2023-04-15T14:38:23;7.63;;;2.77;;
75971;SDS011;64651;47.540;19.088;2023-04-15T14:43:25;8.52;;;3.45;;
75971;SDS011;64651;47.540;19.088;2023-04-15T14:48:29;9.00;;;4.30;;
75971;SDS011;64651;47.540;19.088;2023-04-15T14:53:32;9.07;;;3.95;;
75971;SDS011;64651;47.540;19.088;2023-04-15T14:58:36;9.07;;;3.87;;
75971;SDS011;64651;47.540;19.088;2023-04-15T15:03:38;8.93;;;4.30;;
75971;SDS011;64651;47.540;19.088;2023-04-15T15:08:41;7.72;;;3.58;;
75971;SDS011;64651;47.540;19.088;2023-04-15T15:13:46;7.22;;;2.80;;
75971;SDS011;64651;47.540;19.088;2023-04-15T15:18:50;6.40;;;2.05;;
75971;SDS011;64651;47.540;19.088;2023-04-15T15:23:52;6.10;;;1.60;;
75971;SDS011;64651;47.540;19.088;2023-04-15T15:28:55;6.03;;;1.63;;
75971;SDS011;64651;47.540;19.088;2023-04-15T15:33:57;4.75;;;1.30;;
75971;SDS011;64651;47.540;19.088;2023-04-15T15:38:59;4.32;;;1.10;;
75971;SDS011;64651;47.540;19.088;2023-04-15T15:44:01;3.05;;;0.80;;
75971;SDS011;64651;47.540;19.088;2023-04-15T15:49:05;4.30;;;1.17;;
75971;SDS011;64651;47.540;19.088;2023-04-15T15:54:08;6.23;;;1.33;;
75971;SDS011;64651;47.540;19.088;2023-04-15T15:59:10;4.70;;;1.30;;
75971;SDS011;64651;47.540;19.088;2023-04-15T16:04:12;6.12;;;1.50;;
75971;SDS011;64651;47.540;19.088;2023-04-15T16:09:14;6.43;;;1.50;;
75971;SDS011;64651;47.540;19.088;2023-04-15T16:14:20;6.20;;;1.95;;
75971;SDS011;64651;47.540;19.088;2023-04-15T16:19:22;5.87;;;1.90;;
75971;SDS011;64651;47.540;19.088;2023-04-15T16:24:25;7.32;;;2.30;;
75971;SDS011;64651;47.540;19.088;2023-04-15T16:29:28;7.07;;;2.37;;
75971;SDS011;64651;47.540;19.088;2023-04-15T16:34:30;7.55;;;2.55;;
75971;SDS011;64651;47.540;19.088;2023-04-15T16:39:33;7.95;;;2.75;;
75971;SDS011;64651;47.540;19.088;2023-04-15T16:44:35;8.13;;;2.80;;
75971;SDS011;64651;47.540;19.088;2023-04-15T16:49:37;7.45;;;2.87;;
75971;SDS011;64651;47.540;19.088;2023-04-15T16:54:40;7.93;;;2.87;;
75971;SDS011;64651;47.540;19.088;2023-04-15T16:59:42;7.18;;;2.78;;
75971;SDS011;64651;47.540;19.088;2023-04-15T17:04:44;7.47;;;2.42;;
75971;SDS011;64651;47.540;19.088;2023-04-15T17:09:46;7.47;;;2.60;;
75971;SDS011;64651;47.540;19.088;2023-04-15T17:14:48;7.20;;;2.72;;
75971;SDS011;64651;47.540;19.088;2023-04-15T17:19:50;6.90;;;2.37;;
75971;SDS011;64651;47.540;19.088;2023-04-15T17:24:53;7.40;;;2.70;;
75971;SDS011;64651;47.540;19.088;2023-04-15T17:29:55;8.88;;;3.17;;
75971;SDS011;64651;47.540;19.088;2023-04-15T17:34:58;9.30;;;4.00;;
75971;SDS011;64651;47.540;19.088;2023-04-15T17:40:06;8.10;;;3.53;;
75971;SDS011;64651;47.540;19.088;2023-04-15T17:45:09;8.00;;;3.30;;
75971;SDS011;64651;47.540;19.088;2023-04-15T17:50:12;8.20;;;3.20;;
75971;SDS011;64651;47.540;19.088;2023-04-15T17:55:14;8.63;;;3.78;;
75971;SDS011;64651;47.540;19.088;2023-04-15T18:00:16;8.80;;;3.93;;
75971;SDS011;64651;47.540;19.088;2023-04-15T18:05:19;9.07;;;3.92;;
75971;SDS011;64651;47.540;19.088;2023-04-15T18:10:21;9.18;;;3.90;;
75971;SDS011;64651;47.540;19.088;2023-04-15T18:15:24;9.80;;;4.00;;
75971;SDS011;64651;47.540;19.088;2023-04-15T18:20:27;9.73;;;4.32;;
75971;SDS011;64651;47.540;19.088;2023-04-15T18:25:30;10.87;;;4.70;;
75971;SDS011;64651;47.540;19.088;2023-04-15T18:30:32;8.82;;;4.37;;
75971;SDS011;64651;47.540;19.088;2023-04-15T18:35:34;10.25;;;5.10;;
75971;SDS011;64651;47.540;19.088;2023-04-15T18:40:37;9.90;;;4.40;;
75971;SDS011;64651;47.540;19.088;2023-04-15T18:45:39;10.82;;;5.30;;
75971;SDS011;64651;47.540;19.088;2023-04-15T18:50:42;12.57;;;5.83;;
75971;SDS011;64651;47.540;19.088;2023-04-15T18:55:44;11.30;;;5.82;;
75971;SDS011;64651;47.540;19.088;2023-04-15T19:00:46;11.48;;;5.70;;
75971;SDS011;64651;47.540;19.088;2023-04-15T19:05:48;10.95;;;5.05;;
75971;SDS011;64651;47.540;19.088;2023-04-15T19:10:51;11.32;;;5.25;;
75971;SDS011;64651;47.540;19.088;2023-04-15T19:15:54;11.57;;;5.00;;
75971;SDS011;64651;47.540;19.088;2023-04-15T19:20:56;14.45;;;5.90;;
75971;SDS011;64651;47.540;19.088;2023-04-15T19:25:58;11.60;;;5.68;;
75971;SDS011;64651;47.540;19.088;2023-04-15T19:31:02;11.15;;;5.65;;
75971;SDS011;64651;47.540;19.088;2023-04-15T19:36:05;13.30;;;6.37;;
75971;SDS011;64651;47.540;19.088;2023-04-15T19:41:08;15.00;;;6.83;;
75971;SDS011;64651;47.540;19.088;2023-04-15T19:46:11;13.93;;;7.12;;
75971;SDS011;64651;47.540;19.088;2023-04-15T19:51:14;16.05;;;8.95;;
75971;SDS011;64651;47.540;19.088;2023-04-15T19:56:16;20.27;;;9.80;;
75971;SDS011;64651;47.540;19.088;2023-04-15T20:01:18;18.00;;;9.57;;
75971;SDS011;64651;47.540;19.088;2023-04-15T20:06:21;18.73;;;9.97;;
75971;SDS011;64651;47.540;19.088;2023-04-15T20:11:24;18.75;;;10.48;;
75971;SDS011;64651;47.540;19.088;2023-04-15T20:16:50;19.37;;;10.52;;
75971;SDS011;64651;47.540;19.088;2023-04-15T20:21:52;18.77;;;9.70;;
75971;SDS011;64651;47.540;19.088;2023-04-15T20:26:55;16.95;;;9.45;;
75971;SDS011;64651;47.540;19.088;2023-04-15T20:31:58;20.23;;;9.57;;
75971;SDS011;64651;47.540;19.088;2023-04-15T20:37:00;15.75;;;8.68;;
75971;SDS011;64651;47.540;19.088;2023-04-15T20:42:05;19.35;;;9.88;;
75971;SDS011;64651;47.540;19.088;2023-04-15T20:47:11;17.98;;;9.02;;
75971;SDS011;64651;47.540;19.088;2023-04-15T20:52:14;17.37;;;9.50;;
75971;SDS011;64651;47.540;19.088;2023-04-15T20:57:17;16.23;;;9.63;;
75971;SDS011;64651;47.540;19.088;2023-04-15T21:02:21;19.40;;;10.20;;
75971;SDS011;64651;47.540;19.088;2023-04-15T21:07:24;16.62;;;10.02;;
75971;SDS011;64651;47.540;19.088;2023-04-15T21:12:28;16.85;;;9.75;;
75971;SDS011;64651;47.540;19.088;2023-04-15T21:17:32;19.92;;;11.23;;
75971;SDS011;64651;47.540;19.088;2023-04-15T21:22:36;18.03;;;10.00;;
75971;SDS011;64651;47.540;19.088;2023-04-15T21:27:38;19.20;;;10.93;;
75971;SDS011;64651;47.540;19.088;2023-04-15T21:32:40;20.17;;;11.25;;
75971;SDS011;64651;47.540;19.088;2023-04-15T21:37:42;19.42;;;11.10;;
75971;SDS011;64651;47.540;19.088;2023-04-15T21:42:44;20.17;;;11.38;;
75971;SDS011;64651;47.540;19.088;2023-04-15T21:47:48;21.93;;;12.27;;
75971;SDS011;64651;47.540;19.088;2023-04-15T21:53:08;21.25;;;12.00;;
75971;SDS011;64651;47.540;19.088;2023-04-15T21:58:10;21.42;;;12.25;;
75971;SDS011;64651;47.540;19.088;2023-04-15T22:03:14;24.33;;;12.93;;
75971;SDS011;64651;47.540;19.088;2023-04-15T22:08:17;22.55;;;12.70;;
75971;SDS011;64651;47.540;19.088;2023-04-15T22:13:19;23.17;;;13.07;;
75971;SDS011;64651;47.540;19.088;2023-04-15T22:18:21;22.42;;;13.15;;
75971;SDS011;64651;47.540;19.088;2023-04-15T22:23:24;24.85;;;13.52;;
75971;SDS011;64651;47.540;19.088;2023-04-15T22:28:26;23.62;;;13.50;;
75971;SDS011;64651;47.540;19.088;2023-04-15T22:33:28;23.92;;;13.15;;
75971;SDS011;64651;47.540;19.088;2023-04-15T22:38:30;25.33;;;12.87;;
75971;SDS011;64651;47.540;19.088;2023-04-15T22:43:32;21.52;;;12.77;;
75971;SDS011;64651;47.540;19.088;2023-04-15T22:48:35;19.85;;;11.65;;
75971;SDS011;64651;47.540;19.088;2023-04-15T22:53:37;20.27;;;11.80;;
75971;SDS011;64651;47.540;19.088;2023-04-15T22:58:39;20.75;;;11.75;;
75971;SDS011;64651;47.540;19.088;2023-04-15T23:03:42;21.07;;;11.70;;
75971;SDS011;64651;47.540;19.088;2023-04-15T23:09:05;25.52;;;14.13;;
75971;SDS011;64651;47.540;19.088;2023-04-15T23:14:07;23.92;;;14.32;;
75971;SDS011;64651;47.540;19.088;2023-04-15T23:19:09;27.30;;;15.02;;
75971;SDS011;64651;47.540;19.088;2023-04-15T23:24:12;27.98;;;15.52;;
75971;SDS011;64651;47.540;19.088;2023-04-15T23:29:14;27.80;;;16.50;;
75971;SDS011;64651;47.540;19.088;2023-04-15T23:34:17;29.15;;;16.95;;
75971;SDS011;64651;47.540;19.088;2023-04-15T23:39:19;30.73;;;16.85;;
75971;SDS011;64651;47.540;19.088;2023-04-15T23:44:21;25.37;;;15.45;;
75971;SDS011;64651;47.540;19.088;2023-04-15T23:49:24;26.15;;;15.48;;
75971;SDS011;64651;47.540;19.088;2023-04-15T23:54:26;25.67;;;14.43;;
75971;SDS011;64651;47.540;19.088;2023-04-15T23:59:28;26.10;;;15.40;;
